Time;durP1;ratioP1;P1;durP2;ratioP2;P2;SDS_P1;SDS_P2;PMS_P1;PMS_P2;Temp;Humidity;BMP_temperature;BMP_pressure;BME280_temperature;BME280_humidity;BME280_pressure;Samples;Min_cycle;Max_cycle;Signal;HPM_P1;HPM_P2
2022/03/01 00:00:38;;;;;;;16.40;8.82;;;0.80;99.90;;;;;;5070454;28;20070;-52
2022/03/01 00:03:03;;;;;;;15.45;9.70;;;0.80;99.90;;;;;;5069965;28;20028;-49
2022/03/01 00:05:29;;;;;;;18.00;9.88;;;0.80;99.90;;;;;;5070489;28;20733;-51
2022/03/01 00:07:55;;;;;;;16.60;9.85;;;0.80;99.90;;;;;;5070076;28;20029;-49
2022/03/01 00:10:20;;;;;;;15.75;9.00;;;0.80;99.90;;;;;;5069830;28;20021;-50
2022/03/01 00:12:46;;;;;;;17.80;9.05;;;0.80;99.90;;;;;;5069267;28;20468;-50
2022/03/01 00:15:12;;;;;;;16.75;9.38;;;0.80;99.90;;;;;;5069678;28;20059;-51
2022/03/01 00:17:37;;;;;;;15.40;9.30;;;0.80;99.90;;;;;;5052107;28;20170;-49
2022/03/01 00:20:04;;;;;;;16.50;9.45;;;0.80;99.90;;;;;;5069790;28;20051;-51
2022/03/01 00:22:30;;;;;;;15.55;9.57;;;0.70;99.90;;;;;;5069562;28;20035;-50
2022/03/01 00:24:56;;;;;;;18.95;10.25;;;0.70;99.90;;;;;;5069542;28;20024;-52
2022/03/01 00:27:21;;;;;;;16.20;10.05;;;0.70;99.90;;;;;;5069586;28;20115;-46
2022/03/01 00:29:47;;;;;;;14.75;9.43;;;0.70;99.90;;;;;;5069569;28;20035;-49
2022/03/01 00:32:13;;;;;;;17.00;9.35;;;0.70;99.90;;;;;;5069228;28;20029;-50
2022/03/01 00:34:38;;;;;;;16.08;9.85;;;0.60;99.90;;;;;;5069729;28;20071;-49
2022/03/01 00:37:04;;;;;;;12.55;8.38;;;0.60;99.90;;;;;;5068655;28;20453;-51
2022/03/01 00:39:30;;;;;;;16.95;9.68;;;0.60;99.90;;;;;;5069910;28;20107;-50
2022/03/01 00:41:55;;;;;;;16.50;9.52;;;0.60;99.90;;;;;;5068967;28;20483;-51
2022/03/01 00:44:21;;;;;;;16.42;8.77;;;0.60;99.90;;;;;;5069066;28;20033;-48
2022/03/01 00:46:47;;;;;;;18.05;8.77;;;0.60;99.90;;;;;;5069862;28;20099;-50
2022/03/01 00:49:13;;;;;;;20.40;10.38;;;0.60;99.90;;;;;;5069077;28;20485;-49
2022/03/01 00:51:39;;;;;;;13.57;9.50;;;0.60;99.90;;;;;;5069513;28;20040;-51
2022/03/01 00:54:05;;;;;;;15.30;8.55;;;0.60;99.90;;;;;;5068964;28;20070;-49
2022/03/01 00:56:30;;;;;;;16.02;9.57;;;0.50;99.90;;;;;;5069541;28;20059;-50
2022/03/01 00:58:56;;;;;;;17.15;8.77;;;0.50;99.90;;;;;;5067999;28;20506;-51
2022/03/01 01:01:22;;;;;;;17.60;9.52;;;0.60;99.90;;;;;;5051552;28;20089;-50
2022/03/01 01:03:57;;;;;;;14.18;8.40;;;0.50;99.90;;;;;;5050696;28;20032;-51
2022/03/01 01:06:23;;;;;;;19.75;9.07;;;0.50;99.90;;;;;;5065571;28;20034;-49
2022/03/01 01:08:48;;;;;;;16.92;9.60;;;0.50;99.90;;;;;;5069090;28;20032;-49
2022/03/01 01:11:14;;;;;;;21.00;9.60;;;0.50;99.90;;;;;;5069084;28;20035;-51
2022/03/01 01:13:39;;;;;;;14.02;8.70;;;0.40;99.90;;;;;;5068555;28;20086;-48
2022/03/01 01:16:05;;;;;;;15.20;9.20;;;0.40;99.90;;;;;;5069194;28;20025;-49
2022/03/01 01:18:31;;;;;;;14.13;8.55;;;0.40;99.90;;;;;;5069038;28;20048;-50
2022/03/01 01:20:56;;;;;;;15.85;9.63;;;0.40;99.90;;;;;;5050743;28;20029;-49
2022/03/01 01:23:22;;;;;;;14.60;8.77;;;0.40;99.90;;;;;;5069028;28;20116;-50
2022/03/01 01:25:48;;;;;;;14.77;8.98;;;0.40;99.90;;;;;;5069016;28;20021;-50
2022/03/01 01:28:14;;;;;;;15.63;8.25;;;0.30;99.90;;;;;;5068398;28;20051;-51
2022/03/01 01:30:39;;;;;;;14.15;8.23;;;0.30;99.90;;;;;;5069066;28;20059;-51
2022/03/01 01:33:05;;;;;;;14.73;8.35;;;0.20;99.90;;;;;;5067964;28;20404;-51
2022/03/01 01:35:32;;;;;;;15.40;8.38;;;0.30;99.90;;;;;;5069218;28;20024;-49
2022/03/01 01:37:59;;;;;;;14.52;9.50;;;0.20;99.90;;;;;;5072594;28;20047;-50
2022/03/01 01:40:28;;;;;;;13.68;8.68;;;0.20;99.90;;;;;;5072547;28;20059;-49
2022/03/01 01:42:54;;;;;;;14.85;8.18;;;0.20;99.90;;;;;;5055018;28;20028;-49
2022/03/01 01:45:21;;;;;;;16.42;8.90;;;0.10;99.90;;;;;;5058543;28;20032;-52
2022/03/01 01:47:48;;;;;;;15.70;8.77;;;0.10;99.90;;;;;;5072576;28;20035;-49
2022/03/01 01:50:15;;;;;;;17.95;9.35;;;0.10;99.90;;;;;;5072700;28;20021;-49
2022/03/01 01:52:43;;;;;;;12.93;7.63;;;0.10;99.90;;;;;;5071492;28;20028;-48
2022/03/01 01:55:08;;;;;;;17.38;9.02;;;0.10;99.90;;;;;;5071624;28;20020;-49
2022/03/01 01:57:34;;;;;;;19.73;9.65;;;0.10;99.90;;;;;;5071887;28;20211;-52
2022/03/01 02:00:01;;;;;;;15.55;8.40;;;0.00;99.90;;;;;;5051496;28;20135;-50
2022/03/01 02:02:27;;;;;;;14.85;8.63;;;0.00;99.90;;;;;;5052184;28;20605;-50
2022/03/01 02:04:53;;;;;;;12.38;8.20;;;0.00;99.90;;;;;;5071630;28;20041;-49
2022/03/01 02:07:19;;;;;;;13.60;8.02;;;0.00;99.90;;;;;;5054538;28;20032;-50
2022/03/01 02:09:44;;;;;;;12.77;8.23;;;0.00;99.90;;;;;;5054365;28;20546;-50
2022/03/01 02:12:10;;;;;;;14.80;8.73;;;-0.10;99.90;;;;;;5071519;28;20519;-50
2022/03/01 02:14:37;;;;;;;17.35;8.93;;;-0.10;99.90;;;;;;5072326;28;20029;-50
2022/03/01 02:17:09;;;;;;;14.43;8.02;;;-0.10;99.90;;;;;;5072105;28;20119;-51
2022/03/01 02:19:35;;;;;;;14.57;9.07;;;-0.10;99.90;;;;;;5071859;28;20107;-49
2022/03/01 02:22:01;;;;;;;13.20;7.78;;;0.00;99.90;;;;;;5071703;28;20032;-50
2022/03/01 02:24:29;;;;;;;13.32;8.23;;;0.00;99.90;;;;;;5072121;28;20389;-50
2022/03/01 02:26:57;;;;;;;16.25;8.57;;;-0.10;99.90;;;;;;5071631;28;20554;-49
2022/03/01 02:29:23;;;;;;;15.48;8.48;;;-0.10;99.90;;;;;;5071833;28;20031;-50
2022/03/01 02:31:50;;;;;;;15.30;8.18;;;-0.10;99.90;;;;;;5072258;28;20452;-49
2022/03/01 02:34:17;;;;;;;16.13;8.45;;;-0.10;99.90;;;;;;5071231;28;20036;-49
2022/03/01 02:36:43;;;;;;;14.88;7.90;;;-0.10;99.90;;;;;;5071411;28;20029;-48
2022/03/01 02:39:08;;;;;;;18.35;10.18;;;-0.10;99.90;;;;;;5071406;28;20113;-50
2022/03/01 02:41:43;;;;;;;14.18;9.15;;;-0.10;99.90;;;;;;5071864;28;20036;-49
2022/03/01 02:44:09;;;;;;;14.43;7.82;;;-0.10;99.90;;;;;;5071833;28;20032;-49
2022/03/01 02:46:35;;;;;;;14.82;8.43;;;-0.20;99.90;;;;;;5071169;28;20067;-49
2022/03/01 02:49:02;;;;;;;17.20;9.25;;;-0.20;99.90;;;;;;5071365;28;20064;-47
2022/03/01 02:51:28;;;;;;;15.48;8.98;;;-0.20;99.90;;;;;;5071247;28;20099;-49
2022/03/01 02:53:54;;;;;;;13.15;7.95;;;-0.20;99.90;;;;;;5070806;28;20702;-49
2022/03/01 02:56:20;;;;;;;13.30;8.40;;;-0.30;99.90;;;;;;5071417;28;20546;-50
2022/03/01 02:58:45;;;;;;;15.82;8.32;;;-0.30;99.90;;;;;;5070901;28;20036;-48
2022/03/01 03:01:11;;;;;;;12.93;8.18;;;-0.30;99.90;;;;;;5071183;28;20024;-48
2022/03/01 03:03:37;;;;;;;15.60;9.35;;;-0.40;99.90;;;;;;5070838;28;20089;-49
2022/03/01 03:06:03;;;;;;;14.32;8.30;;;-0.40;99.90;;;;;;5053327;28;20052;-48
2022/03/01 03:08:28;;;;;;;15.25;8.57;;;-0.40;99.90;;;;;;5070834;28;20036;-49
2022/03/01 03:10:54;;;;;;;14.80;8.52;;;-0.40;99.90;;;;;;5053011;28;20423;-47
2022/03/01 03:13:20;;;;;;;14.95;8.55;;;-0.50;99.90;;;;;;5070786;28;20036;-48
2022/03/01 03:15:47;;;;;;;12.73;7.82;;;-0.50;99.90;;;;;;5072032;28;20041;-50
2022/03/01 03:18:13;;;;;;;16.58;8.88;;;-0.50;99.90;;;;;;5071294;28;20024;-49
2022/03/01 03:20:39;;;;;;;15.32;8.35;;;-0.60;99.90;;;;;;5071018;28;20089;-49
2022/03/01 03:23:05;;;;;;;15.10;9.07;;;-0.50;99.90;;;;;;5070936;28;20041;-48
2022/03/01 03:25:31;;;;;;;16.35;8.55;;;-0.50;99.90;;;;;;5071295;28;20492;-49
2022/03/01 03:27:57;;;;;;;15.18;8.95;;;-0.50;99.90;;;;;;5070921;28;20055;-50
2022/03/01 03:30:23;;;;;;;14.95;7.95;;;-0.50;99.90;;;;;;5070750;28;20029;-48
2022/03/01 03:32:49;;;;;;;14.95;7.78;;;-0.50;99.90;;;;;;5070061;28;20032;-50
2022/03/01 03:35:14;;;;;;;18.48;8.50;;;-0.50;99.90;;;;;;5060075;28;20029;-50
2022/03/01 03:37:40;;;;;;;14.60;8.52;;;-0.60;99.90;;;;;;5070574;28;20020;-48
2022/03/01 03:40:06;;;;;;;12.88;7.97;;;-0.60;99.90;;;;;;5070491;28;20028;-51
2022/03/01 03:42:32;;;;;;;12.80;8.05;;;-0.60;99.90;;;;;;5052344;28;20289;-50
2022/03/01 03:44:57;;;;;;;16.50;9.40;;;-0.60;99.90;;;;;;5070532;28;20415;-49
2022/03/01 03:47:23;;;;;;;13.65;9.15;;;-0.70;99.90;;;;;;5070723;28;20024;-49
2022/03/01 03:49:49;;;;;;;17.70;8.55;;;-0.70;99.90;;;;;;5069962;28;20055;-48
2022/03/01 03:52:14;;;;;;;18.10;8.20;;;-0.70;99.90;;;;;;5070587;28;20055;-49
2022/03/01 03:54:40;;;;;;;13.68;8.57;;;-0.70;99.90;;;;;;5070621;28;20469;-49
2022/03/01 03:57:08;;;;;;;17.23;8.57;;;-0.80;99.90;;;;;;5070479;28;20025;-49
2022/03/01 03:59:35;;;;;;;11.13;7.10;;;-0.80;99.90;;;;;;5069271;28;20548;-50
2022/03/01 04:02:02;;;;;;;16.95;8.48;;;-0.70;99.90;;;;;;5052587;28;20111;-49
2022/03/01 04:04:27;;;;;;;13.35;6.72;;;-0.70;99.90;;;;;;5070285;28;20028;-49
2022/03/01 04:06:53;;;;;;;17.88;9.68;;;-0.70;99.90;;;;;;5052452;28;20040;-50
2022/03/01 04:09:18;;;;;;;14.63;8.32;;;-0.70;99.90;;;;;;5052068;28;20077;-49
2022/03/01 04:11:44;;;;;;;15.25;8.25;;;-0.80;99.90;;;;;;5070108;28;20086;-50
2022/03/01 04:14:10;;;;;;;14.50;8.38;;;-0.80;99.90;;;;;;5051939;28;20029;-51
2022/03/01 04:16:35;;;;;;;12.93;7.72;;;-0.80;99.90;;;;;;5070041;28;20112;-49
2022/03/01 04:19:02;;;;;;;16.58;7.38;;;-0.80;99.90;;;;;;5069602;28;20036;-49
2022/03/01 04:21:28;;;;;;;14.00;7.85;;;-0.90;99.90;;;;;;5069734;28;20035;-49
2022/03/01 04:23:53;;;;;;;12.40;7.82;;;-0.90;99.90;;;;;;5069715;28;20036;-47
2022/03/01 04:26:19;;;;;;;14.15;8.05;;;-0.90;99.90;;;;;;5069469;28;20029;-47
2022/03/01 04:28:45;;;;;;;13.23;8.65;;;-0.90;99.90;;;;;;5069839;28;20024;-51
2022/03/01 04:31:11;;;;;;;15.80;7.75;;;-1.00;99.90;;;;;;5070356;28;20085;-49
2022/03/01 04:33:37;;;;;;;14.32;8.23;;;-1.00;99.90;;;;;;5069551;28;20641;-49
2022/03/01 04:36:03;;;;;;;15.80;8.73;;;-1.10;99.90;;;;;;5068901;28;20020;-48
2022/03/01 04:38:30;;;;;;;14.95;7.93;;;-1.10;99.90;;;;;;5069852;28;20024;-49
2022/03/01 04:40:56;;;;;;;12.82;7.78;;;-1.10;99.90;;;;;;5067828;28;20032;-49
2022/03/01 04:43:22;;;;;;;15.68;8.27;;;-1.10;99.90;;;;;;5069273;28;20016;-48
2022/03/01 04:45:48;;;;;;;16.30;8.50;;;-1.00;99.90;;;;;;5069291;28;20365;-49
2022/03/01 04:48:14;;;;;;;15.15;8.10;;;-1.10;99.90;;;;;;5069192;28;20487;-49
2022/03/01 04:50:40;;;;;;;13.50;7.75;;;-1.10;99.90;;;;;;5069399;28;20043;-49
2022/03/01 04:53:05;;;;;;;13.80;8.40;;;-1.10;99.90;;;;;;5068867;28;20456;-49
2022/03/01 04:55:32;;;;;;;16.25;8.95;;;-1.20;99.90;;;;;;5069106;28;20602;-49
2022/03/01 04:57:58;;;;;;;13.38;7.35;;;-1.20;99.90;;;;;;5069226;28;20077;-48
2022/03/01 05:00:24;;;;;;;17.73;8.80;;;-1.20;99.90;;;;;;5068574;28;20522;-49
2022/03/01 05:02:49;;;;;;;17.90;8.10;;;-1.30;99.90;;;;;;5068985;28;20545;-49
2022/03/01 05:05:16;;;;;;;12.20;7.70;;;-1.30;99.90;;;;;;5068654;28;20028;-49
2022/03/01 05:07:46;;;;;;;11.85;7.30;;;-1.30;99.90;;;;;;5069013;28;20024;-50
2022/03/01 05:10:17;;;;;;;13.05;8.02;;;-1.30;99.90;;;;;;5068928;28;20103;-49
2022/03/01 05:12:44;;;;;;;13.20;8.25;;;-1.30;99.90;;;;;;5069163;28;20029;-49
2022/03/01 05:15:10;;;;;;;18.88;9.02;;;-1.30;99.90;;;;;;5069689;28;20043;-50
2022/03/01 05:17:35;;;;;;;13.52;8.32;;;-1.30;99.90;;;;;;5068838;28;20401;-51
2022/03/01 05:20:02;;;;;;;14.63;8.50;;;-1.30;99.90;;;;;;5068923;28;20050;-49
2022/03/01 05:22:27;;;;;;;14.95;8.57;;;-1.30;99.90;;;;;;5091873;22;20052;-49
2022/03/01 05:24:53;;;;;;;14.32;8.27;;;-1.40;99.90;;;;;;5068020;28;20625;-53
2022/03/01 05:27:18;;;;;;;17.08;8.32;;;-1.40;99.90;;;;;;5068451;28;20025;-52
2022/03/01 05:29:44;;;;;;;16.83;8.57;;;-1.40;99.90;;;;;;5068957;28;20099;-53
2022/03/01 05:32:11;;;;;;;15.85;7.72;;;-1.40;99.90;;;;;;5068679;28;20476;-53
2022/03/01 05:34:37;;;;;;;14.57;7.60;;;-1.40;99.90;;;;;;5069011;28;20067;-51
2022/03/01 05:37:03;;;;;;;12.88;8.07;;;-1.40;99.90;;;;;;5068829;28;20021;-53
2022/03/01 05:39:29;;;;;;;16.55;8.85;;;-1.40;99.90;;;;;;5068522;28;20036;-53
2022/03/01 05:41:55;;;;;;;13.88;8.73;;;-1.40;99.90;;;;;;5051867;28;20043;-54
2022/03/01 05:44:20;;;;;;;16.75;9.43;;;-1.40;99.90;;;;;;5069242;28;20035;-53
2022/03/01 05:46:47;;;;;;;16.58;9.02;;;-1.50;99.90;;;;;;5068870;28;20079;-52
2022/03/01 05:49:12;;;;;;;14.70;8.50;;;-1.50;99.90;;;;;;5068875;28;20381;-53
2022/03/01 05:51:38;;;;;;;13.25;7.47;;;-1.50;99.90;;;;;;5068937;28;20024;-49
2022/03/01 05:54:03;;;;;;;13.38;8.45;;;-1.50;99.90;;;;;;5068909;28;20154;-53
2022/03/01 05:56:29;;;;;;;16.60;8.13;;;-1.50;99.90;;;;;;5068499;28;20399;-51
2022/03/01 05:58:54;;;;;;;15.95;9.05;;;-1.50;99.90;;;;;;5068683;28;20425;-52
2022/03/01 06:01:20;;;;;;;17.45;9.10;;;-1.50;99.90;;;;;;5068771;28;20025;-54
2022/03/01 06:03:46;;;;;;;11.70;7.13;;;-1.50;99.90;;;;;;5068698;28;20098;-54
2022/03/01 06:06:11;;;;;;;13.98;8.15;;;-1.60;99.90;;;;;;5068347;28;20029;-53
2022/03/01 06:08:37;;;;;;;12.55;7.97;;;-1.60;99.90;;;;;;5068607;28;20051;-53
2022/03/01 06:11:02;;;;;;;16.02;8.27;;;-1.60;99.90;;;;;;5068745;28;20036;-50
2022/03/01 06:13:28;;;;;;;15.32;7.63;;;-1.60;99.90;;;;;;5068155;28;20071;-50
2022/03/01 06:15:54;;;;;;;15.30;8.27;;;-1.70;99.90;;;;;;5068536;28;20523;-53
2022/03/01 06:18:19;;;;;;;14.57;9.07;;;-1.70;99.90;;;;;;5068215;28;20033;-51
2022/03/01 06:20:45;;;;;;;12.55;8.38;;;-1.60;99.90;;;;;;5068456;28;20044;-52
2022/03/01 06:23:11;;;;;;;15.70;8.13;;;-1.60;99.90;;;;;;5070531;28;20048;-52
2022/03/01 06:25:37;;;;;;;18.38;9.18;;;-1.70;99.90;;;;;;5071524;28;20032;-55
2022/03/01 06:28:03;;;;;;;14.88;8.90;;;-1.70;99.90;;;;;;5072445;28;20086;-53
2022/03/01 06:30:28;;;;;;;16.95;8.63;;;-1.70;99.90;;;;;;5072518;28;20107;-52
2022/03/01 06:32:54;;;;;;;11.82;7.35;;;-1.70;99.90;;;;;;5072068;28;20025;-51
2022/03/01 06:35:20;;;;;;;16.15;9.23;;;-1.70;99.90;;;;;;5072262;28;20036;-52
2022/03/01 06:37:46;;;;;;;17.00;9.07;;;-1.70;99.90;;;;;;5071693;28;20036;-53
2022/03/01 06:40:12;;;;;;;16.20;8.57;;;-1.70;99.90;;;;;;5071312;28;20055;-51
2022/03/01 06:42:39;;;;;;;14.32;9.05;;;-1.70;99.90;;;;;;5071758;28;20020;-53
2022/03/01 06:45:06;;;;;;;14.93;9.02;;;-1.70;99.90;;;;;;5072145;28;20404;-53
2022/03/01 06:47:32;;;;;;;15.73;9.68;;;-1.60;99.90;;;;;;5071616;28;20103;-49
2022/03/01 06:49:57;;;;;;;16.30;9.23;;;-1.60;99.90;;;;;;5071707;28;20036;-53
2022/03/01 06:52:23;;;;;;;15.60;9.23;;;-1.60;99.90;;;;;;5071303;28;20029;-52
2022/03/01 06:54:49;;;;;;;13.80;8.80;;;-1.60;99.90;;;;;;5071618;28;20070;-53
2022/03/01 06:57:14;;;;;;;15.40;9.23;;;-1.60;99.90;;;;;;5071681;28;20032;-52
2022/03/01 06:59:40;;;;;;;14.95;9.52;;;-1.50;99.90;;;;;;5071538;28;20044;-54
2022/03/01 07:02:06;;;;;;;14.10;9.02;;;-1.50;99.90;;;;;;5071261;28;20642;-54
2022/03/01 07:04:32;;;;;;;18.33;9.80;;;-1.50;99.90;;;;;;5071462;28;20101;-52
2022/03/01 07:06:57;;;;;;;18.95;9.35;;;-1.50;99.90;;;;;;5071708;28;20484;-54
2022/03/01 07:09:23;;;;;;;17.67;9.57;;;-1.50;99.90;;;;;;5071661;28;20484;-52
2022/03/01 07:11:48;;;;;;;14.75;8.93;;;-1.40;99.90;;;;;;5071293;28;20082;-54
2022/03/01 07:14:14;;;;;;;13.82;8.38;;;-1.40;99.90;;;;;;5071063;28;20142;-53
2022/03/01 07:16:40;;;;;;;19.35;9.43;;;-1.40;99.90;;;;;;5071089;28;20063;-53
2022/03/01 07:19:05;;;;;;;16.30;9.35;;;-1.40;99.90;;;;;;5071218;28;20078;-52
2022/03/01 07:21:31;;;;;;;17.10;9.05;;;-1.40;99.90;;;;;;5071028;28;20620;-51
2022/03/01 07:23:56;;;;;;;18.83;10.10;;;-1.30;99.90;;;;;;5071118;28;20028;-50
2022/03/01 07:26:22;;;;;;;14.77;8.95;;;-1.30;99.90;;;;;;5056611;28;20620;-54
2022/03/01 07:28:48;;;;;;;16.60;9.40;;;-1.30;99.90;;;;;;5073529;28;20028;-53
2022/03/01 07:31:13;;;;;;;15.10;9.63;;;-1.20;99.90;;;;;;5070684;28;20024;-51
2022/03/01 07:33:41;;;;;;;17.65;10.60;;;-1.20;99.90;;;;;;5069679;28;20151;-49
2022/03/01 07:36:07;;;;;;;16.38;8.85;;;-1.10;99.90;;;;;;5071202;28;20032;-51
2022/03/01 07:38:32;;;;;;;19.88;9.52;;;-1.10;99.90;;;;;;5071162;28;20039;-52
2022/03/01 07:40:58;;;;;;;17.55;9.90;;;-1.00;99.90;;;;;;5071231;28;20024;-53
2022/03/01 07:43:24;;;;;;;16.52;10.20;;;-0.90;99.90;;;;;;5070913;28;20503;-53
2022/03/01 07:45:49;;;;;;;18.17;10.40;;;-0.90;99.90;;;;;;5070973;28;20032;-53
2022/03/01 07:48:15;;;;;;;16.55;10.05;;;-0.80;99.90;;;;;;5071369;28;20020;-54
2022/03/01 07:50:41;;;;;;;14.65;9.18;;;-0.80;99.90;;;;;;5070898;28;20438;-52
2022/03/01 07:53:06;;;;;;;18.23;8.85;;;-0.80;99.90;;;;;;5071098;28;20025;-53
2022/03/01 07:55:34;;;;;;;12.73;9.23;;;-0.80;99.90;;;;;;5071083;28;20024;-52
2022/03/01 07:57:59;;;;;;;15.10;9.68;;;-0.70;99.90;;;;;;5053063;28;20102;-50
2022/03/01 08:00:25;;;;;;;19.48;10.60;;;-0.70;99.90;;;;;;5069546;28;20476;-52
2022/03/01 08:02:52;;;;;;;16.88;9.32;;;-0.50;99.90;;;;;;5070291;28;20090;-52
2022/03/01 08:05:18;;;;;;;19.75;10.85;;;-0.40;99.90;;;;;;5070809;28;20028;-53
2022/03/01 08:07:44;;;;;;;16.08;9.43;;;-0.30;99.90;;;;;;5070226;28;20033;-50
2022/03/01 08:10:10;;;;;;;16.42;10.27;;;-0.10;99.90;;;;;;5070646;28;20106;-54
2022/03/01 08:12:36;;;;;;;17.45;10.25;;;0.00;99.90;;;;;;5069738;28;20036;-54
2022/03/01 08:15:02;;;;;;;17.80;10.43;;;0.10;99.90;;;;;;5070587;28;20472;-55
2022/03/01 08:17:27;;;;;;;15.32;10.32;;;0.20;99.90;;;;;;5068547;28;20032;-55
2022/03/01 08:19:53;;;;;;;18.83;10.50;;;0.30;99.90;;;;;;5070742;28;20051;-53
2022/03/01 08:22:18;;;;;;;18.35;11.07;;;0.50;99.90;;;;;;5070059;28;20051;-55
2022/03/01 08:24:44;;;;;;;15.18;9.93;;;0.70;99.90;;;;;;5070286;28;20032;-55
2022/03/01 08:27:10;;;;;;;17.95;10.95;;;0.80;99.90;;;;;;5070315;28;20020;-56
2022/03/01 08:29:35;;;;;;;18.42;11.48;;;1.00;99.90;;;;;;5070500;28;20032;-52
2022/03/01 08:32:01;;;;;;;15.45;10.27;;;1.10;99.90;;;;;;5069773;28;20024;-49
2022/03/01 08:34:27;;;;;;;14.02;9.65;;;1.10;99.90;;;;;;5069841;28;20207;-56
2022/03/01 08:36:52;;;;;;;15.63;10.65;;;1.10;99.90;;;;;;5069789;28;20150;-53
2022/03/01 08:39:18;;;;;;;16.65;10.63;;;1.00;99.90;;;;;;5069845;28;20102;-53
2022/03/01 08:41:44;;;;;;;18.85;11.80;;;1.00;99.90;;;;;;5069947;28;20056;-54
2022/03/01 08:44:09;;;;;;;17.15;10.50;;;1.00;99.90;;;;;;5069570;28;20392;-52
2022/03/01 08:46:35;;;;;;;16.83;10.18;;;1.00;99.90;;;;;;5068659;28;20033;-53
2022/03/01 08:49:01;;;;;;;14.85;9.68;;;1.10;99.90;;;;;;5070186;28;20024;-53
2022/03/01 08:51:27;;;;;;;16.77;10.70;;;1.20;99.90;;;;;;5069492;28;20108;-49
2022/03/01 08:53:54;;;;;;;18.48;10.88;;;1.30;99.90;;;;;;5051539;28;20518;-50
2022/03/01 08:56:20;;;;;;;17.33;10.18;;;1.30;99.90;;;;;;5069548;28;20040;-55
2022/03/01 08:58:47;;;;;;;19.23;10.82;;;1.50;99.90;;;;;;5069573;28;20172;-53
2022/03/01 09:01:14;;;;;;;15.05;10.35;;;1.60;99.90;;;;;;5068793;28;20150;-52
2022/03/01 09:03:39;;;;;;;19.17;10.38;;;1.80;99.90;;;;;;5069300;28;20037;-50
2022/03/01 09:06:05;;;;;;;17.63;10.05;;;2.00;99.90;;;;;;5069307;28;20037;-50
2022/03/01 09:08:33;;;;;;;19.27;11.30;;;2.20;99.90;;;;;;5070115;28;20123;-55
2022/03/01 09:10:59;;;;;;;21.60;11.98;;;2.40;99.90;;;;;;5068911;28;20544;-50
2022/03/01 09:13:25;;;;;;;19.48;10.23;;;2.60;99.90;;;;;;5068316;28;20051;-53
2022/03/01 09:15:50;;;;;;;16.27;10.30;;;2.70;99.90;;;;;;5068952;28;20060;-52
2022/03/01 09:18:16;;;;;;;19.65;11.93;;;3.00;99.90;;;;;;5068647;28;20497;-53
2022/03/01 09:20:41;;;;;;;17.20;11.15;;;3.10;99.90;;;;;;5069730;28;20074;-51
2022/03/01 09:23:07;;;;;;;16.88;9.43;;;3.20;99.90;;;;;;5067617;28;20552;-54
2022/03/01 09:25:33;;;;;;;13.98;10.15;;;3.30;99.90;;;;;;5068556;28;20032;-53
2022/03/01 09:27:59;;;;;;;19.58;12.10;;;3.20;99.90;;;;;;5068443;28;20111;-54
2022/03/01 09:30:25;;;;;;;18.00;11.35;;;3.20;99.90;;;;;;5067639;28;20031;-52
2022/03/01 09:32:50;;;;;;;17.90;11.07;;;3.30;99.90;;;;;;5068168;28;20040;-50
2022/03/01 09:35:17;;;;;;;21.10;10.27;;;3.40;99.90;;;;;;5068282;28;20036;-51
2022/03/01 09:37:43;;;;;;;16.25;10.38;;;3.60;99.90;;;;;;5068174;28;20115;-53
2022/03/01 09:40:11;;;;;;;19.17;10.90;;;3.70;99.90;;;;;;5068473;28;20107;-52
2022/03/01 09:42:38;;;;;;;15.85;10.98;;;3.80;99.90;;;;;;5067587;28;20044;-52
2022/03/01 09:45:04;;;;;;;16.70;10.30;;;3.80;99.90;;;;;;5068539;28;20024;-51
2022/03/01 09:47:30;;;;;;;16.58;10.43;;;3.80;99.90;;;;;;5066957;28;20468;-52
2022/03/01 09:49:56;;;;;;;19.13;11.65;;;3.80;99.90;;;;;;5068225;28;20059;-51
2022/03/01 09:52:21;;;;;;;18.15;11.32;;;3.90;99.90;;;;;;5067894;28;20534;-52
2022/03/01 09:54:51;;;;;;;16.33;10.10;;;3.90;99.90;;;;;;5068185;28;20032;-52
2022/03/01 09:57:18;;;;;;;20.45;11.65;;;4.00;99.90;;;;;;5070171;28;20041;-52
2022/03/01 09:59:43;;;;;;;15.52;11.27;;;4.10;99.90;;;;;;5071466;28;20255;-52
2022/03/01 10:02:09;;;;;;;19.20;11.65;;;4.10;99.90;;;;;;5071499;28;20112;-53
2022/03/01 10:04:55;;;;;;;17.98;11.20;;;4.10;99.90;;;;;;5071391;28;20032;-50
2022/03/01 10:07:25;;;;;;;16.63;10.35;;;4.20;99.90;;;;;;5071736;28;20499;-50
2022/03/01 10:09:52;;;;;;;17.15;12.15;;;4.20;99.90;;;;;;5071462;28;20041;-53
2022/03/01 10:12:25;;;;;;;17.05;10.57;;;4.20;99.90;;;;;;5071285;28;20051;-55
2022/03/01 10:15:04;;;;;;;17.60;11.48;;;4.30;99.90;;;;;;5071334;28;20032;-54
2022/03/01 10:17:47;;;;;;;17.45;12.07;;;4.30;99.90;;;;;;5065944;28;20032;-53
2022/03/01 10:20:15;;;;;;;18.45;11.32;;;4.30;99.90;;;;;;5069837;28;20082;-56
2022/03/01 10:22:50;;;;;;;19.35;11.35;;;4.40;99.90;;;;;;5022893;28;1114223;-54
2022/03/01 10:25:18;;;;;;;14.55;10.70;;;4.50;99.90;;;;;;5072496;28;20396;-55
2022/03/01 10:27:46;;;;;;;19.45;11.45;;;4.50;99.90;;;;;;5071526;28;20055;-53
2022/03/01 10:30:21;;;;;;;20.23;11.23;;;4.60;99.90;;;;;;5072306;28;20029;-53
2022/03/01 10:32:46;;;;;;;21.33;11.77;;;4.70;99.90;;;;;;5072072;28;20093;-52
2022/03/01 10:35:12;;;;;;;19.13;11.68;;;4.70;99.90;;;;;;5072301;28;20033;-57
2022/03/01 10:37:39;;;;;;;14.93;10.43;;;4.80;99.90;;;;;;5070739;28;20024;-56
2022/03/01 10:40:12;;;;;;;16.27;11.10;;;4.80;99.90;;;;;;5072303;28;20024;-54
2022/03/01 10:42:38;;;;;;;17.75;11.15;;;4.70;99.90;;;;;;5071236;28;20044;-54
2022/03/01 10:45:05;;;;;;;17.77;10.93;;;4.70;99.90;;;;;;5072146;28;20029;-56
2022/03/01 10:47:32;;;;;;;18.45;10.88;;;4.70;99.90;;;;;;5072171;28;20028;-55
2022/03/01 10:50:03;;;;;;;21.27;11.73;;;4.70;99.90;;;;;;5072035;28;20027;-55
2022/03/01 10:52:34;;;;;;;17.90;11.48;;;4.70;99.90;;;;;;5071748;28;20111;-57
2022/03/01 10:55:00;;;;;;;16.63;10.43;;;4.70;99.90;;;;;;5071856;28;20032;-53
2022/03/01 10:57:25;;;;;;;18.33;10.90;;;4.80;99.90;;;;;;5072103;28;20043;-53
2022/03/01 10:59:52;;;;;;;16.83;10.73;;;4.90;99.90;;;;;;5063225;28;20038;-54
2022/03/01 11:02:18;;;;;;;18.25;11.73;;;5.10;99.90;;;;;;5078412;28;20255;-52
2022/03/01 11:04:45;;;;;;;17.98;11.40;;;5.30;99.90;;;;;;5071770;28;20045;-55
2022/03/01 11:07:11;;;;;;;15.50;10.82;;;5.50;99.90;;;;;;5072568;28;20086;-56
2022/03/01 11:09:37;;;;;;;15.95;10.18;;;5.70;99.90;;;;;;5053217;28;20036;-57
2022/03/01 11:12:06;;;;;;;17.23;10.95;;;5.70;99.90;;;;;;5071532;28;20081;-56
2022/03/01 11:15:01;;;;;;;15.98;11.85;;;5.80;99.90;;;;;;5071398;28;20166;-53
2022/03/01 11:17:38;;;;;;;17.23;11.88;;;5.90;99.90;;;;;;5072076;28;20399;-52
2022/03/01 11:20:26;;;;;;;16.80;10.98;;;5.90;99.90;;;;;;5071701;28;20029;-52
2022/03/01 11:23:19;;;;;;;15.95;10.40;;;6.00;99.90;;;;;;5095552;22;20037;-53
2022/03/01 11:25:46;;;;;;;19.13;11.30;;;6.10;99.90;;;;;;5070936;28;20060;-52
2022/03/01 11:28:12;;;;;;;19.10;11.52;;;6.10;99.90;;;;;;5068462;28;20021;-52
2022/03/01 11:30:51;;;;;;;18.55;11.57;;;6.10;99.90;;;;;;5071567;28;20464;-52
2022/03/01 11:33:35;;;;;;;17.98;11.32;;;6.20;99.90;;;;;;5071068;28;20016;-55
2022/03/01 11:36:03;;;;;;;17.35;11.57;;;6.10;99.90;;;;;;5054300;28;20031;-51
2022/03/01 11:38:32;;;;;;;16.38;10.38;;;6.20;99.90;;;;;;5071394;28;20032;-51
2022/03/01 11:41:18;;;;;;;17.52;12.10;;;6.20;99.90;;;;;;5071145;28;20044;-51
2022/03/01 11:43:50;;;;;;;20.30;11.63;;;6.20;99.90;;;;;;5070905;28;20070;-52
2022/03/01 11:46:19;;;;;;;18.83;11.95;;;6.30;99.90;;;;;;5071226;28;20036;-52
2022/03/01 11:48:56;;;;;;;17.00;10.82;;;6.40;99.90;;;;;;5071093;28;20021;-53
2022/03/01 11:51:39;;;;;;;19.00;11.10;;;6.40;99.90;;;;;;5071111;28;20020;-53
2022/03/01 11:54:08;;;;;;;16.70;11.10;;;6.40;99.90;;;;;;5052357;28;20025;-53
2022/03/01 11:56:35;;;;;;;18.40;11.25;;;6.50;99.90;;;;;;5069559;28;20164;-51
2022/03/01 11:59:06;;;;;;;14.90;10.73;;;6.50;99.90;;;;;;5070591;28;20016;-52
2022/03/01 12:01:33;;;;;;;27.65;11.25;;;6.60;99.90;;;;;;5069875;28;20369;-52
2022/03/01 12:04:01;;;;;;;19.95;11.75;;;6.60;99.90;;;;;;5070762;28;20070;-53
2022/03/01 12:06:29;;;;;;;17.02;11.73;;;6.60;99.90;;;;;;5070691;28;20024;-53
2022/03/01 12:09:00;;;;;;;16.83;10.55;;;6.70;99.90;;;;;;5070836;28;20408;-55
2022/03/01 12:11:39;;;;;;;19.08;12.35;;;6.80;99.90;;;;;;5070735;28;20442;-53
2022/03/01 12:14:11;;;;;;;18.70;11.73;;;6.80;99.90;;;;;;5070109;28;20035;-53
2022/03/01 12:16:38;;;;;;;19.25;11.32;;;6.90;99.90;;;;;;5070283;28;20027;-52
2022/03/01 12:19:14;;;;;;;16.88;10.85;;;6.90;99.90;;;;;;5069839;28;20020;-56
2022/03/01 12:21:45;;;;;;;;;;;6.90;99.90;;;;;;5071340;28;20017;-54
2022/03/01 12:24:11;;;;;;;14.75;10.43;;;6.90;99.90;;;;;;5070926;28;19913;-54
2022/03/01 12:26:50;;;;;;;16.45;10.43;;;7.00;99.90;;;;;;5070502;28;20484;-52
2022/03/01 12:29:18;;;;;;;16.27;10.85;;;7.00;99.90;;;;;;5052598;28;20496;-54
2022/03/01 12:32:04;;;;;;;17.30;11.20;;;7.00;99.90;;;;;;5070466;28;20025;-53
2022/03/01 12:34:31;;;;;;;16.90;11.23;;;7.00;99.90;;;;;;5069965;28;20032;-53
2022/03/01 12:37:00;;;;;;;13.93;11.02;;;7.00;99.90;;;;;;5070308;28;20070;-53